createdAt,value
2018-08-25T00:00:10.043Z,11.8
2018-08-25T00:01:12.631Z,11.8
2018-08-25T00:02:15.194Z,11.7
2018-08-25T00:03:18.042Z,11.7
2018-08-25T00:04:20.849Z,11.7
2018-08-25T00:05:24.072Z,11.8
2018-08-25T00:06:27.102Z,11.8
2018-08-25T00:07:30.469Z,12
2018-08-25T00:08:33.609Z,11.9
2018-08-25T00:09:37.441Z,11.9
2018-08-25T00:10:41.661Z,12.1
2018-08-25T00:11:44.450Z,12
2018-08-25T00:12:46.946Z,12.1
2018-08-25T00:13:49.032Z,12.1
2018-08-25T00:14:51.518Z,12.2
2018-08-25T00:15:53.610Z,12.2
2018-08-25T00:16:55.734Z,12.1
2018-08-25T00:17:58.112Z,12.1
2018-08-25T00:19:00.213Z,12.2
2018-08-25T00:20:02.605Z,12.3
2018-08-25T00:21:04.731Z,12.3
2018-08-25T00:22:06.835Z,12.3
2018-08-25T00:23:08.935Z,12.3
2018-08-25T00:24:11.043Z,12.2
2018-08-25T00:25:13.136Z,12.1
2018-08-25T00:26:15.243Z,12.1
2018-08-25T00:27:17.626Z,12.1
2018-08-25T00:28:19.731Z,12.2
2018-08-25T00:29:21.823Z,12.2
2018-08-25T00:30:23.912Z,12.3
2018-08-25T00:31:26.006Z,12.3
2018-08-25T00:32:28.499Z,12.2
2018-08-25T00:33:30.585Z,12.3
2018-08-25T00:34:32.692Z,12.3
2018-08-25T00:35:34.790Z,12.3
2018-08-25T00:36:36.892Z,12.2
2018-08-25T00:37:39.326Z,12.3
2018-08-25T00:38:41.532Z,12.2
2018-08-25T00:39:44.083Z,12.2
2018-08-25T00:40:46.822Z,12.2
2018-08-25T00:41:48.920Z,12.1
2018-08-25T00:42:51.159Z,12.1
2018-08-25T00:43:53.802Z,12.1
2018-08-25T00:44:55.893Z,12.1
2018-08-25T00:45:58.130Z,12
2018-08-25T00:47:00.648Z,12
2018-08-25T00:48:02.923Z,12
2018-08-25T00:49:05.740Z,12.1
2018-08-25T00:50:07.911Z,12.1
2018-08-25T00:51:10.266Z,12.1
2018-08-25T00:52:12.424Z,12.1
2018-08-25T00:53:14.631Z,12
2018-08-25T00:54:16.739Z,12.1
2018-08-25T00:55:18.941Z,12
2018-08-25T00:56:21.563Z,11.8
2018-08-25T00:57:23.801Z,12
2018-08-25T00:58:26.306Z,11.9
2018-08-25T00:59:28.676Z,11.8
2018-08-25T01:00:31.862Z,11.9
2018-08-25T01:01:34.451Z,11.9
2018-08-25T01:02:36.954Z,11.8
2018-08-25T01:03:40.212Z,11.7
2018-08-25T01:04:42.562Z,11.8
2018-08-25T01:05:45.133Z,11.6
2018-08-25T01:06:47.694Z,11.6
2018-08-25T01:07:50.047Z,11.6
2018-08-25T01:08:53.808Z,11.7
2018-08-25T01:09:57.674Z,11.7
2018-08-25T01:11:01.352Z,11.7
2018-08-25T01:12:05.389Z,11.5
2018-08-25T01:13:09.618Z,11.5
2018-08-25T01:14:13.068Z,11.6
2018-08-25T01:15:17.141Z,11.6
2018-08-25T01:16:20.209Z,11.6
2018-08-25T01:17:24.480Z,11.5
2018-08-25T01:18:27.916Z,11.6
2018-08-25T01:19:30.827Z,11.7
2018-08-25T01:20:33.286Z,11.6
2018-08-25T01:21:35.861Z,11.6
2018-08-25T01:22:39.051Z,11.6
2018-08-25T01:23:42.198Z,11.6
2018-08-25T01:24:44.817Z,11.5
2018-08-25T01:25:47.138Z,11.5
2018-08-25T01:26:49.430Z,11.6
2018-08-25T01:27:52.125Z,11.6
2018-08-25T01:28:54.908Z,11.5
2018-08-25T01:29:57.323Z,11.5
2018-08-25T01:30:59.567Z,11.5
2018-08-25T01:32:02.146Z,11.4
2018-08-25T01:33:04.611Z,11.5
2018-08-25T01:34:06.854Z,11.4
2018-08-25T01:35:09.524Z,11.4
2018-08-25T01:36:11.798Z,11.3
2018-08-25T01:37:14.175Z,11.3
2018-08-25T01:38:16.406Z,11.2
2018-08-25T01:39:18.728Z,11.2
2018-08-25T01:40:21.312Z,11.4
2018-08-25T01:41:23.976Z,11.3
2018-08-25T01:42:26.632Z,11.4
2018-08-25T01:43:29.274Z,11.4
2018-08-25T01:44:31.810Z,11.4
2018-08-25T01:45:34.389Z,11.4
2018-08-25T01:46:36.708Z,11.5
2018-08-25T01:47:39.305Z,11.5
2018-08-25T01:48:41.418Z,11.5
2018-08-25T01:49:43.793Z,11.5
2018-08-25T01:50:46.341Z,11.5
2018-08-25T01:51:48.538Z,11.5
2018-08-25T01:52:50.916Z,11.6
2018-08-25T01:53:53.495Z,11.5
2018-08-25T01:54:55.999Z,11.5
2018-08-25T01:55:58.432Z,11.5
2018-08-25T01:57:01.846Z,11.5
2018-08-25T01:58:03.965Z,11.5
2018-08-25T01:59:06.219Z,11.5
2018-08-25T02:00:08.382Z,11.4
2018-08-25T02:01:11.149Z,11.4
2018-08-25T02:02:13.735Z,11.5
2018-08-25T02:03:15.957Z,11.5
2018-08-25T02:04:18.179Z,11.4
2018-08-25T02:05:20.382Z,11.3
2018-08-25T02:06:23.178Z,11.3
2018-08-25T02:07:25.966Z,11.3
2018-08-25T02:08:28.584Z,11.4
2018-08-25T02:09:31.058Z,11.4
2018-08-25T02:10:33.281Z,11.4
2018-08-25T02:11:35.890Z,11.4
2018-08-25T02:12:38.211Z,11.2
2018-08-25T02:13:40.491Z,11.2
2018-08-25T02:14:42.766Z,11.1
2018-08-25T02:15:45.424Z,11.1
2018-08-25T02:16:48.103Z,11
2018-08-25T02:17:50.623Z,11
2018-08-25T02:18:53.073Z,11.1
2018-08-25T02:19:55.313Z,11.1
2018-08-25T02:20:57.967Z,10.9
2018-08-25T02:22:00.207Z,11
2018-08-25T02:23:02.550Z,10.9
2018-08-25T02:24:05.011Z,10.9
2018-08-25T02:25:08.656Z,11.1
2018-08-25T02:26:10.897Z,11.1
2018-08-25T02:27:13.836Z,11.1
2018-08-25T02:28:16.520Z,11.2
2018-08-25T02:29:18.673Z,11.1
2018-08-25T02:30:21.596Z,11.2
2018-08-25T02:31:24.221Z,11.1
2018-08-25T02:32:27.119Z,11.1
2018-08-25T02:33:30.515Z,11
2018-08-25T02:34:33.367Z,11.1
2018-08-25T02:35:36.012Z,11.1
2018-08-25T02:36:38.888Z,11.1
2018-08-25T02:37:41.727Z,11.2
2018-08-25T02:38:46.157Z,11.2
2018-08-25T02:39:48.563Z,11.2
2018-08-25T02:40:51.256Z,11.3
2018-08-25T02:41:54.086Z,11.3
2018-08-25T02:42:57.696Z,11.4
2018-08-25T02:44:00.211Z,11.4
2018-08-25T02:45:02.619Z,11.4
2018-08-25T02:46:05.012Z,11.4
2018-08-25T02:47:07.414Z,11.4
2018-08-25T02:48:09.893Z,11.5
2018-08-25T02:49:12.381Z,11.5
2018-08-25T02:50:14.790Z,11.4
2018-08-25T02:51:16.869Z,11.4
2018-08-25T02:52:19.267Z,11.4
2018-08-25T02:53:21.655Z,11.4
2018-08-25T02:54:24.444Z,11.5
2018-08-25T02:55:26.522Z,11.5
2018-08-25T02:56:29.015Z,11.6
2018-08-25T02:57:31.108Z,11.5
2018-08-25T02:58:33.205Z,11.5
2018-08-25T02:59:35.896Z,11.6
2018-08-25T03:00:38.271Z,11.6
2018-08-25T03:01:40.660Z,11.6
2018-08-25T03:02:42.749Z,11.6
2018-08-25T03:03:44.861Z,11.6
2018-08-25T03:04:46.961Z,11.6
2018-08-25T03:05:49.050Z,11.6
2018-08-25T03:06:51.156Z,11.6
2018-08-25T03:07:53.240Z,11.7
2018-08-25T03:08:55.347Z,11.8
2018-08-25T03:09:57.445Z,11.8
2018-08-25T03:10:59.923Z,11.8
2018-08-25T03:12:02.357Z,11.8
2018-08-25T03:13:04.486Z,11.8
2018-08-25T03:14:06.618Z,11.8
2018-08-25T03:15:08.682Z,11.8
2018-08-25T03:16:11.164Z,11.8
2018-08-25T03:17:13.268Z,11.8
2018-08-25T03:18:15.655Z,11.8
2018-08-25T03:19:17.748Z,11.8
2018-08-25T03:20:19.859Z,11.8
2018-08-25T03:21:21.948Z,11.8
2018-08-25T03:22:24.039Z,11.9
2018-08-25T03:23:26.141Z,11.8
2018-08-25T03:24:28.223Z,11.8
2018-08-25T03:25:31.021Z,11.9
2018-08-25T03:26:33.119Z,11.9
2018-08-25T03:27:35.228Z,11.9
2018-08-25T03:28:37.308Z,11.8
2018-08-25T03:29:39.725Z,11.8
2018-08-25T03:30:42.212Z,11.8
2018-08-25T03:31:44.700Z,11.8
2018-08-25T03:32:47.407Z,11.8
2018-08-25T03:33:49.498Z,11.8
2018-08-25T03:34:51.611Z,11.8
2018-08-25T03:35:53.698Z,11.8
2018-08-25T03:36:56.101Z,11.8
2018-08-25T03:37:58.193Z,11.9
2018-08-25T03:39:00.678Z,11.9
2018-08-25T03:40:02.786Z,11.9
2018-08-25T03:41:04.863Z,11.8
2018-08-25T03:42:06.971Z,11.8
2018-08-25T03:43:09.071Z,11.8
2018-08-25T03:44:11.159Z,11.9
2018-08-25T03:45:14.323Z,11.9
2018-08-25T03:46:16.435Z,11.9
2018-08-25T03:47:18.559Z,11.9
2018-08-25T03:48:20.665Z,11.9
2018-08-25T03:49:22.786Z,11.9
2018-08-25T03:50:24.874Z,11.9
2018-08-25T03:51:26.971Z,11.9
2018-08-25T03:52:29.075Z,11.9
2018-08-25T03:53:31.156Z,11.9
2018-08-25T03:54:33.549Z,11.9
2018-08-25T03:55:35.677Z,12
2018-08-25T03:56:38.031Z,12
2018-08-25T03:57:40.432Z,12
2018-08-25T03:58:42.520Z,11.9
2018-08-25T03:59:44.907Z,11.9
2018-08-25T04:00:47.000Z,11.9
2018-08-25T04:01:49.111Z,12
2018-08-25T04:02:51.484Z,12
2018-08-25T04:03:53.581Z,12
2018-08-25T04:04:55.685Z,12
2018-08-25T04:05:58.366Z,12
2018-08-25T04:07:00.468Z,12
2018-08-25T04:08:02.953Z,12
2018-08-25T04:09:05.052Z,12
2018-08-25T04:10:07.188Z,12
2018-08-25T04:11:09.246Z,11.9
2018-08-25T04:12:11.944Z,11.9
2018-08-25T04:13:14.039Z,12
2018-08-25T04:14:16.152Z,12.1
2018-08-25T04:15:18.235Z,12.1
2018-08-25T04:16:20.326Z,12.1
2018-08-25T04:17:22.824Z,12.1
2018-08-25T04:18:25.207Z,12.2
2018-08-25T04:19:27.292Z,12.1
2018-08-25T04:20:29.390Z,12.1
2018-08-25T04:21:31.493Z,12
2018-08-25T04:22:33.587Z,12.1
2018-08-25T04:23:35.694Z,12.1
2018-08-25T04:24:37.790Z,12.1
2018-08-25T04:25:39.883Z,12
2018-08-25T04:26:42.291Z,12.1
2018-08-25T04:27:44.383Z,12.1
2018-08-25T04:28:46.763Z,12
2018-08-25T04:29:49.154Z,12.1
2018-08-25T04:30:51.269Z,12.1
2018-08-25T04:31:53.373Z,12
2018-08-25T04:32:55.468Z,11.9
2018-08-25T04:33:57.554Z,12
2018-08-25T04:34:59.945Z,12
2018-08-25T04:36:02.029Z,12
2018-08-25T04:37:04.124Z,12
2018-08-25T04:38:06.613Z,12.1
2018-08-25T04:39:08.693Z,12
2018-08-25T04:40:10.802Z,12.1
2018-08-25T04:41:13.210Z,12.1
2018-08-25T04:42:15.291Z,12
2018-08-25T04:43:17.369Z,12
2018-08-25T04:44:19.473Z,12
2018-08-25T04:45:21.854Z,12
2018-08-25T04:46:23.941Z,12
2018-08-25T04:47:26.440Z,12
2018-08-25T04:48:28.520Z,12.1
2018-08-25T04:49:30.611Z,12.1
2018-08-25T04:50:32.717Z,12.1
2018-08-25T04:51:35.194Z,12.1
2018-08-25T04:52:37.273Z,12.1
2018-08-25T04:53:39.368Z,12.1
2018-08-25T04:54:41.456Z,12.1
2018-08-25T04:55:43.555Z,12.1
2018-08-25T04:56:45.653Z,12
2018-08-25T04:57:48.030Z,12.1
2018-08-25T04:58:50.113Z,12.1
2018-08-25T04:59:52.227Z,12.1
2018-08-25T05:00:54.608Z,12
2018-08-25T05:01:56.737Z,12.1
2018-08-25T05:02:58.795Z,12.1
2018-08-25T05:04:00.870Z,12.2
2018-08-25T05:05:03.366Z,12.2
2018-08-25T05:06:05.459Z,12.2
2018-08-25T05:07:07.883Z,12.1
2018-08-25T05:08:10.263Z,12.1
2018-08-25T05:09:12.744Z,12.1
2018-08-25T05:10:14.833Z,12.1
2018-08-25T05:11:16.936Z,12.1
2018-08-25T05:12:19.013Z,12.1
2018-08-25T05:13:21.112Z,12.1
2018-08-25T05:14:23.498Z,12.1
2018-08-25T05:15:25.619Z,12.1
2018-08-25T05:16:27.990Z,12.1
2018-08-25T05:17:30.485Z,12.1
2018-08-25T05:18:32.577Z,12.1
2018-08-25T05:19:34.662Z,12.2
2018-08-25T05:20:37.214Z,12.1
2018-08-25T05:21:39.590Z,12.1
2018-08-25T05:22:42.258Z,12.1
2018-08-25T05:23:44.367Z,12.2
2018-08-25T05:24:46.746Z,12.3
2018-08-25T05:25:48.830Z,12.3
2018-08-25T05:26:51.230Z,12.2
2018-08-25T05:27:53.708Z,12.3
2018-08-25T05:28:55.797Z,12.3
2018-08-25T05:29:57.900Z,12.3
2018-08-25T05:30:59.990Z,12.3
2018-08-25T05:32:02.369Z,12.3
2018-08-25T05:33:04.484Z,12.4
2018-08-25T05:34:06.569Z,12.3
2018-08-25T05:35:08.656Z,12.3
2018-08-25T05:36:10.758Z,12.4
2018-08-25T05:37:12.840Z,12.4
2018-08-25T05:38:14.946Z,12.4
2018-08-25T05:39:17.041Z,12.4
2018-08-25T05:40:19.146Z,12.5
2018-08-25T05:41:21.808Z,12.5
2018-08-25T05:42:23.915Z,12.4
2018-08-25T05:43:26.298Z,12.4
2018-08-25T05:44:28.679Z,12.5
2018-08-25T05:45:30.767Z,12.5
2018-08-25T05:46:32.871Z,12.6
2018-08-25T05:47:35.300Z,12.7
2018-08-25T05:48:37.691Z,12.8
2018-08-25T05:49:39.768Z,12.8
2018-08-25T05:50:41.874Z,12.8
2018-08-25T05:51:44.259Z,12.9
2018-08-25T05:52:46.351Z,12.9
2018-08-25T05:53:48.456Z,13
2018-08-25T05:54:50.921Z,13.1
2018-08-25T05:55:53.024Z,13.2
2018-08-25T05:56:55.126Z,13.4
2018-08-25T05:57:57.218Z,13.4
2018-08-25T05:58:59.589Z,13.5
2018-08-25T06:00:02.470Z,13.6
2018-08-25T06:01:04.843Z,13.6
2018-08-25T06:02:06.938Z,13.7
2018-08-25T06:03:09.042Z,13.8
2018-08-25T06:04:11.136Z,13.9
2018-08-25T06:05:13.221Z,13.9
2018-08-25T06:06:15.326Z,14
2018-08-25T06:07:18.101Z,14
2018-08-25T06:08:20.189Z,14.1
2018-08-25T06:09:22.586Z,14.2
2018-08-25T06:10:24.667Z,14.2
2018-08-25T06:11:26.765Z,14.2
2018-08-25T06:12:28.860Z,14.3
2018-08-25T06:13:31.827Z,14.2
2018-08-25T06:14:34.256Z,14.3
2018-08-25T06:15:37.046Z,14.3
2018-08-25T06:16:39.140Z,14.3
2018-08-25T06:17:41.261Z,14.3
2018-08-25T06:18:43.735Z,14.3
2018-08-25T06:19:45.817Z,14.4
2018-08-25T06:20:47.914Z,14.4
2018-08-25T06:21:50.306Z,14.5
2018-08-25T06:22:52.415Z,14.6
2018-08-25T06:23:54.897Z,14.6
2018-08-25T06:24:56.994Z,14.6
2018-08-25T06:25:59.099Z,14.7
2018-08-25T06:27:01.179Z,14.7
2018-08-25T06:28:03.296Z,14.7
2018-08-25T06:29:05.970Z,14.8
2018-08-25T06:30:08.505Z,14.8
2018-08-25T06:31:10.895Z,14.9
2018-08-25T06:32:13.003Z,15
2018-08-25T06:33:15.098Z,15
2018-08-25T06:34:17.198Z,15.1
2018-08-25T06:35:19.586Z,15
2018-08-25T06:36:22.060Z,15
2018-08-25T06:37:24.824Z,15
2018-08-25T06:38:26.930Z,15.1
2018-08-25T06:39:29.007Z,15.2
2018-08-25T06:40:31.108Z,15.3
2018-08-25T06:41:33.211Z,15.3
2018-08-25T06:42:35.346Z,15.4
2018-08-25T06:43:37.455Z,15.5
2018-08-25T06:44:39.918Z,15.4
2018-08-25T06:45:42.015Z,15.3
2018-08-25T06:46:44.099Z,15.4
2018-08-25T06:47:46.211Z,15.4
2018-08-25T06:48:48.300Z,15.4
2018-08-25T06:49:50.395Z,15.4
2018-08-25T06:50:52.497Z,15.5
2018-08-25T06:51:54.578Z,15.6
2018-08-25T06:52:56.684Z,15.6
2018-08-25T06:53:58.786Z,15.8
2018-08-25T06:55:00.893Z,15.8
2018-08-25T06:56:02.972Z,15.9
2018-08-25T06:57:05.074Z,15.9
2018-08-25T06:58:07.468Z,15.9
2018-08-25T06:59:09.561Z,16
2018-08-25T07:00:11.671Z,16.1
2018-08-25T07:01:14.079Z,16.1
2018-08-25T07:02:16.468Z,16.1
2018-08-25T07:03:18.558Z,16.1
2018-08-25T07:04:20.655Z,16.3
2018-08-25T07:05:23.057Z,16.4
2018-08-25T07:06:25.541Z,16.4
2018-08-25T07:07:27.638Z,16.3
2018-08-25T07:08:29.736Z,16.3
2018-08-25T07:09:31.826Z,16.3
2018-08-25T07:10:33.919Z,16.5
2018-08-25T07:11:36.033Z,16.6
2018-08-25T07:12:38.117Z,16.6
2018-08-25T07:13:40.512Z,16.7
2018-08-25T07:14:42.612Z,16.7
2018-08-25T07:15:44.698Z,16.7
2018-08-25T07:16:46.813Z,16.6
2018-08-25T07:17:48.904Z,16.7
2018-08-25T07:18:51.408Z,16.7
2018-08-25T07:19:53.724Z,16.7
2018-08-25T07:20:55.838Z,16.6
2018-08-25T07:21:57.932Z,16.6
2018-08-25T07:23:00.034Z,16.7
2018-08-25T07:24:02.430Z,16.7
2018-08-25T07:25:04.509Z,16.8
2018-08-25T07:26:06.625Z,16.7
2018-08-25T07:27:08.725Z,16.7
2018-08-25T07:28:10.835Z,16.6
2018-08-25T07:29:12.926Z,16.6
2018-08-25T07:30:15.039Z,16.6
2018-08-25T07:31:17.475Z,16.6
2018-08-25T07:32:19.551Z,16.6
2018-08-25T07:33:21.664Z,16.6
2018-08-25T07:34:24.346Z,16.5
2018-08-25T07:35:26.443Z,16.7
2018-08-25T07:36:28.549Z,16.7
2018-08-25T07:37:30.651Z,16.7
2018-08-25T07:38:32.739Z,16.7
2018-08-25T07:39:34.845Z,16.7
2018-08-25T07:40:36.947Z,16.8
2018-08-25T07:41:39.046Z,16.8
2018-08-25T07:42:41.131Z,16.8
2018-08-25T07:43:43.231Z,16.8
2018-08-25T07:44:45.352Z,16.8
2018-08-25T07:45:47.734Z,16.8
2018-08-25T07:46:49.839Z,16.8
2018-08-25T07:47:52.234Z,16.9
2018-08-25T07:48:54.328Z,16.9
2018-08-25T07:49:56.447Z,16.8
2018-08-25T07:50:58.845Z,16.7
2018-08-25T07:52:00.927Z,16.7
2018-08-25T07:53:03.021Z,16.7
2018-08-25T07:54:05.128Z,16.6
2018-08-25T07:55:07.215Z,16.6
2018-08-25T07:56:09.312Z,16.5
2018-08-25T07:57:11.413Z,16.4
2018-08-25T07:58:13.496Z,16.3
2018-08-25T07:59:16.457Z,16.3
2018-08-25T08:00:18.523Z,16.2
2018-08-25T08:01:21.015Z,16.2
2018-08-25T08:02:23.102Z,16.2
2018-08-25T08:03:25.207Z,15.9
2018-08-25T08:04:27.299Z,15.9
2018-08-25T08:05:29.406Z,15.8
2018-08-25T08:06:31.501Z,15.8
2018-08-25T08:07:33.592Z,15.9
2018-08-25T08:08:35.688Z,15.8
2018-08-25T08:09:38.190Z,15.8
2018-08-25T08:10:40.288Z,15.9
2018-08-25T08:11:42.411Z,15.9
2018-08-25T08:12:44.770Z,16
2018-08-25T08:13:46.910Z,16.1
2018-08-25T08:14:48.968Z,16.2
2018-08-25T08:15:51.368Z,16.3
2018-08-25T08:16:53.464Z,16.3
2018-08-25T08:17:55.572Z,16.6
2018-08-25T08:18:57.662Z,16.7
2018-08-25T08:19:59.770Z,16.7
2018-08-25T08:21:01.879Z,16.9
2018-08-25T08:22:04.259Z,17.3
2018-08-25T08:23:06.697Z,17.5
2018-08-25T08:24:08.796Z,17.7
2018-08-25T08:25:11.194Z,17.9
2018-08-25T08:26:13.289Z,18
2018-08-25T08:27:15.406Z,18.2
2018-08-25T08:28:17.498Z,18.1
2018-08-25T08:29:19.609Z,18
2018-08-25T08:30:21.716Z,18.1
2018-08-25T08:31:23.813Z,18
2018-08-25T08:32:26.321Z,18.2
2018-08-25T08:33:28.747Z,18.2
2018-08-25T08:34:30.847Z,18
2018-08-25T08:35:33.243Z,18
2018-08-25T08:36:35.355Z,17.8
2018-08-25T08:37:37.452Z,17.8
2018-08-25T08:38:39.548Z,17.9
2018-08-25T08:39:42.186Z,17.8
2018-08-25T08:40:44.319Z,17.5
2018-08-25T08:41:46.379Z,17.6
2018-08-25T08:42:49.171Z,17.6
2018-08-25T08:43:51.279Z,17.5
2018-08-25T08:44:53.446Z,17.5
2018-08-25T08:45:55.554Z,17.6
2018-08-25T08:46:57.651Z,17.6
2018-08-25T08:47:59.754Z,17.5
2018-08-25T08:49:01.869Z,17.5
2018-08-25T08:50:04.049Z,17.5
2018-08-25T08:51:07.621Z,17.4
2018-08-25T08:52:09.743Z,17.5
2018-08-25T08:53:11.838Z,17.4
2018-08-25T08:54:13.941Z,17.4
2018-08-25T08:55:16.052Z,17.5
2018-08-25T08:56:18.138Z,17.4
2018-08-25T08:57:20.632Z,17.3
2018-08-25T08:58:22.861Z,17.4
2018-08-25T08:59:25.142Z,17.2
2018-08-25T09:00:27.541Z,17.1
2018-08-25T09:01:29.664Z,17.2
2018-08-25T09:02:31.769Z,17.1
2018-08-25T09:03:33.966Z,17.2
2018-08-25T09:04:36.048Z,17.2
2018-08-25T09:05:38.439Z,17.2
2018-08-25T09:06:40.543Z,17.2
2018-08-25T09:07:42.934Z,17.3
2018-08-25T09:08:45.342Z,17.3
2018-08-25T09:09:47.434Z,17.4
2018-08-25T09:10:49.534Z,17.4
2018-08-25T09:11:52.149Z,17.5
2018-08-25T09:12:54.159Z,17.7
2018-08-25T09:13:56.267Z,17.8
2018-08-25T09:14:58.367Z,17.8
2018-08-25T09:16:00.462Z,17.7
2018-08-25T09:17:02.571Z,17.7
2018-08-25T09:18:04.683Z,17.8
2018-08-25T09:19:07.104Z,17.8
2018-08-25T09:20:09.209Z,17.8
2018-08-25T09:21:11.307Z,18
2018-08-25T09:22:13.398Z,18.1
2018-08-25T09:23:15.494Z,17.8
2018-08-25T09:24:17.601Z,17.9
2018-08-25T09:25:19.684Z,17.9
2018-08-25T09:26:21.789Z,18
2018-08-25T09:27:24.326Z,18.1
2018-08-25T09:28:26.702Z,18
2018-08-25T09:29:28.818Z,18.1
2018-08-25T09:30:31.253Z,18.1
2018-08-25T09:31:33.356Z,18
2018-08-25T09:32:35.448Z,17.9
2018-08-25T09:33:37.545Z,17.8
2018-08-25T09:34:39.656Z,17.9
2018-08-25T09:35:41.823Z,18
2018-08-25T09:36:44.523Z,18
2018-08-25T09:37:46.539Z,18.1
2018-08-25T09:38:49.239Z,18.1
2018-08-25T09:39:51.731Z,18
2018-08-25T09:40:54.129Z,18.1
2018-08-25T09:41:56.247Z,18.1
2018-08-25T09:42:58.336Z,18
2018-08-25T09:44:00.440Z,18.2
2018-08-25T09:45:03.252Z,18.4
2018-08-25T09:46:05.338Z,18.4
2018-08-25T09:47:07.527Z,18.5
2018-08-25T09:48:09.554Z,18.4
2018-08-25T09:49:11.647Z,18.3
2018-08-25T09:50:14.031Z,18.3
2018-08-25T09:51:16.150Z,18.3
2018-08-25T09:52:18.247Z,18.2
2018-08-25T09:53:21.102Z,18.1
2018-08-25T09:54:23.141Z,18.1
2018-08-25T09:55:25.229Z,18
2018-08-25T09:56:27.332Z,18
2018-08-25T09:57:29.446Z,17.7
2018-08-25T09:58:31.915Z,17.8
2018-08-25T09:59:34.331Z,17.9
2018-08-25T10:00:36.434Z,18
2018-08-25T10:01:38.529Z,18
2018-08-25T10:02:40.641Z,18.2
2018-08-25T10:03:42.733Z,18.1
2018-08-25T10:04:44.831Z,18.2
2018-08-25T10:05:46.925Z,18.4
2018-08-25T10:06:49.050Z,18.3
2018-08-25T10:07:51.435Z,18.1
2018-08-25T10:08:53.936Z,18
2018-08-25T10:09:56.042Z,17.9
2018-08-25T10:10:58.797Z,18
2018-08-25T10:12:00.798Z,18
2018-08-25T10:13:03.212Z,18.1
2018-08-25T10:14:05.810Z,17.9
2018-08-25T10:15:08.365Z,17.8
2018-08-25T10:16:10.771Z,17.8
2018-08-25T10:17:13.063Z,17.7
2018-08-25T10:18:15.159Z,17.7
2018-08-25T10:19:17.620Z,17.6
2018-08-25T10:20:19.710Z,17.6
2018-08-25T10:21:21.813Z,17.5
2018-08-25T10:22:24.989Z,17.4
2018-08-25T10:23:27.563Z,17.2
2018-08-25T10:24:29.939Z,17.2
2018-08-25T10:25:32.134Z,17.1
2018-08-25T10:26:34.933Z,16.9
2018-08-25T10:27:37.031Z,16.8
2018-08-25T10:28:39.437Z,16.4
2018-08-25T10:29:41.541Z,16.3
2018-08-25T10:30:44.229Z,16.1
2018-08-25T10:31:46.654Z,16
2018-08-25T10:32:48.749Z,15.8
2018-08-25T10:33:51.842Z,15.8
2018-08-25T10:34:54.341Z,15.8
2018-08-25T10:35:56.428Z,15.7
2018-08-25T10:36:58.540Z,15.4
2018-08-25T10:38:00.636Z,15.1
2018-08-25T10:39:02.745Z,15.3
2018-08-25T10:40:05.222Z,15.1
2018-08-25T10:41:07.331Z,15
2018-08-25T10:42:09.500Z,14.7
2018-08-25T10:43:11.810Z,14.7
2018-08-25T10:44:13.922Z,14.7
2018-08-25T10:45:16.014Z,14.6
2018-08-25T10:46:18.107Z,14.6
2018-08-25T10:47:20.205Z,14.4
2018-08-25T10:48:22.946Z,14.5
2018-08-25T10:49:25.039Z,14.4
2018-08-25T10:50:27.424Z,14.5
2018-08-25T10:51:29.522Z,14.5
2018-08-25T10:52:31.636Z,14.3
2018-08-25T10:53:33.734Z,14.5
2018-08-25T10:54:35.834Z,14.4
2018-08-25T10:55:37.942Z,14.4
2018-08-25T10:56:40.327Z,14.6
2018-08-25T10:57:43.347Z,14.4
2018-08-25T10:58:45.528Z,14.4
2018-08-25T10:59:47.623Z,14.4
2018-08-25T11:00:51.272Z,14.3
2018-08-25T11:01:53.327Z,14.3
2018-08-25T11:02:55.427Z,14.4
2018-08-25T11:03:57.920Z,14.3
2018-08-25T11:05:00.045Z,14.6
2018-08-25T11:06:02.151Z,14.6
2018-08-25T11:07:04.262Z,14.5
2018-08-25T11:08:06.377Z,14.6
2018-08-25T11:09:08.461Z,14.6
2018-08-25T11:10:10.567Z,15
2018-08-25T11:11:12.664Z,15.3
2018-08-25T11:12:15.164Z,15.6
2018-08-25T11:13:17.277Z,15.8
2018-08-25T11:14:19.690Z,16
2018-08-25T11:15:22.477Z,16.1
2018-08-25T11:16:24.582Z,16.4
2018-08-25T11:17:26.687Z,16.7
2018-08-25T11:18:29.082Z,16.8
2018-08-25T11:19:31.183Z,16.9
2018-08-25T11:20:33.565Z,16.8
2018-08-25T11:21:35.973Z,16.6
2018-08-25T11:22:38.060Z,16.5
2018-08-25T11:23:40.174Z,16.3
2018-08-25T11:24:43.010Z,16.2
2018-08-25T11:25:45.102Z,16.5
2018-08-25T11:26:47.211Z,16.6
2018-08-25T11:27:49.318Z,16.5
2018-08-25T11:28:51.416Z,16.3
2018-08-25T11:29:53.911Z,16.5
2018-08-25T11:30:56.311Z,16.5
2018-08-25T11:31:58.408Z,16.6
2018-08-25T11:33:00.510Z,16.4
2018-08-25T11:34:02.613Z,16.3
2018-08-25T11:35:05.097Z,16.2
2018-08-25T11:36:07.197Z,16.2
2018-08-25T11:37:09.377Z,16.3
2018-08-25T11:38:12.035Z,16.4
2018-08-25T11:39:13.951Z,16.3
2018-08-25T11:40:16.362Z,16.6
2018-08-25T11:41:18.459Z,16.8
2018-08-25T11:42:20.864Z,16.7
2018-08-25T11:43:22.956Z,16.7
2018-08-25T11:44:25.059Z,16.9
2018-08-25T11:45:27.503Z,17
2018-08-25T11:46:29.618Z,17.3
2018-08-25T11:47:31.708Z,17.3
2018-08-25T11:48:33.808Z,17.4
2018-08-25T11:49:35.917Z,17.6
2018-08-25T11:50:38.007Z,17.3
2018-08-25T11:51:40.119Z,17.5
2018-08-25T11:52:42.220Z,17.8
2018-08-25T11:53:44.719Z,18.1
2018-08-25T11:54:46.809Z,18.5
2018-08-25T11:55:48.923Z,19
2018-08-25T11:56:51.030Z,19
2018-08-25T11:57:53.413Z,19.1
2018-08-25T11:58:55.526Z,19
2018-08-25T11:59:57.621Z,18.7
2018-08-25T12:00:59.725Z,18.4
2018-08-25T12:02:02.278Z,18.5
2018-08-25T12:03:05.540Z,18.3
2018-08-25T12:04:07.632Z,18.3
2018-08-25T12:05:09.737Z,18
2018-08-25T12:06:11.856Z,17.9
2018-08-25T12:07:13.960Z,17.9
2018-08-25T12:08:16.757Z,17.8
2018-08-25T12:09:19.285Z,17.5
2018-08-25T12:10:21.389Z,17.3
2018-08-25T12:11:23.476Z,17.4
2018-08-25T12:12:25.579Z,17.2
2018-08-25T12:13:27.685Z,17.2
2018-08-25T12:14:29.782Z,16.9
2018-08-25T12:15:32.204Z,16.8
2018-08-25T12:16:34.300Z,16.9
2018-08-25T12:17:36.406Z,16.9
2018-08-25T12:18:38.498Z,16.9
2018-08-25T12:19:40.617Z,17
2018-08-25T12:20:42.710Z,17
2018-08-25T12:21:44.812Z,16.9
2018-08-25T12:22:46.923Z,16.8
2018-08-25T12:23:49.008Z,16.9
2018-08-25T12:24:51.517Z,16.9
2018-08-25T12:25:54.296Z,16.6
2018-08-25T12:26:56.405Z,16.8
2018-08-25T12:27:58.492Z,16.7
2018-08-25T12:29:00.606Z,16.7
2018-08-25T12:30:03.477Z,16.7
2018-08-25T12:31:05.562Z,16.5
2018-08-25T12:32:07.670Z,16.7
2018-08-25T12:33:09.761Z,16.8
2018-08-25T12:34:12.252Z,16.9
2018-08-25T12:35:14.362Z,16.6
2018-08-25T12:36:16.749Z,16.5
2018-08-25T12:37:18.835Z,16.3
2018-08-25T12:38:21.230Z,16.1
2018-08-25T12:39:23.643Z,16.2
2018-08-25T12:40:25.718Z,16.3
2018-08-25T12:41:27.833Z,16.4
2018-08-25T12:42:29.930Z,16.4
2018-08-25T12:43:33.375Z,16.6
2018-08-25T12:44:35.845Z,16.9
2018-08-25T12:45:37.946Z,17
2018-08-25T12:46:40.047Z,17.2
2018-08-25T12:47:42.139Z,17.3
2018-08-25T12:48:44.259Z,17.6
2018-08-25T12:49:46.350Z,17.6
2018-08-25T12:50:48.837Z,17.8
2018-08-25T12:51:50.934Z,18.2
2018-08-25T12:52:53.045Z,18.1
2018-08-25T12:53:55.136Z,18.2
2018-08-25T12:54:57.239Z,17.9
2018-08-25T12:55:59.347Z,17.7
2018-08-25T12:57:01.432Z,17.5
2018-08-25T12:58:03.604Z,17.7
2018-08-25T12:59:06.048Z,17.4
2018-08-25T13:00:08.539Z,17.3
2018-08-25T13:01:11.017Z,17
2018-08-25T13:02:13.136Z,17
2018-08-25T13:03:15.234Z,17
2018-08-25T13:04:17.622Z,16.9
2018-08-25T13:05:19.739Z,16.9
2018-08-25T13:06:21.831Z,17
2018-08-25T13:07:23.968Z,16.8
2018-08-25T13:08:26.479Z,16.7
2018-08-25T13:09:28.582Z,16.9
2018-08-25T13:10:31.060Z,16.8
2018-08-25T13:11:33.165Z,16.8
2018-08-25T13:12:35.257Z,16.7
2018-08-25T13:13:37.363Z,16.5
2018-08-25T13:14:40.367Z,16.5
2018-08-25T13:15:42.405Z,16.6
2018-08-25T13:16:44.495Z,16.5
2018-08-25T13:17:46.612Z,16.3
2018-08-25T13:18:48.722Z,16.1
2018-08-25T13:19:50.798Z,15.9
2018-08-25T13:20:52.894Z,15.7
2018-08-25T13:21:55.020Z,15.5
2018-08-25T13:22:57.096Z,15.6
2018-08-25T13:23:59.200Z,15.6
2018-08-25T13:25:01.391Z,15.5
2018-08-25T13:26:03.403Z,15.7
2018-08-25T13:27:05.493Z,15.6
2018-08-25T13:28:07.881Z,15.4
2018-08-25T13:29:09.987Z,15.5
2018-08-25T13:30:12.769Z,15.6
2018-08-25T13:31:14.963Z,16
2018-08-25T13:32:17.271Z,15.8
2018-08-25T13:33:19.379Z,15.9
2018-08-25T13:34:21.471Z,16
2018-08-25T13:35:23.578Z,16.1
2018-08-25T13:36:25.973Z,16.1
2018-08-25T13:37:28.068Z,16
2018-08-25T13:38:30.177Z,15.9
2018-08-25T13:39:32.650Z,16.1
2018-08-25T13:40:35.042Z,16.1
2018-08-25T13:41:37.159Z,16.5
2018-08-25T13:42:39.860Z,16.3
2018-08-25T13:43:41.982Z,16.5
2018-08-25T13:44:44.057Z,16.7
2018-08-25T13:45:46.154Z,16.9
2018-08-25T13:46:48.252Z,17.1
2018-08-25T13:47:50.366Z,17
2018-08-25T13:48:52.851Z,17.1
2018-08-25T13:49:54.946Z,17.1
2018-08-25T13:50:57.702Z,17.2
2018-08-25T13:51:59.784Z,17
2018-08-25T13:53:02.178Z,16.9
2018-08-25T13:54:04.291Z,17.2
2018-08-25T13:55:06.379Z,17.5